sensor_id;sensor_type;location;lat;lon;timestamp;temperature;humidity
57434;DHT22;43277;52.672;6.984;2022-08-05T00:00:01;18.40;99.90
57434;DHT22;43277;52.672;6.984;2022-08-05T00:02:27;18.40;99.90
57434;DHT22;43277;52.672;6.984;2022-08-05T00:04:52;18.30;99.90
57434;DHT22;43277;52.672;6.984;2022-08-05T00:07:18;18.30;99.90
57434;DHT22;43277;52.672;6.984;2022-08-05T00:09:43;18.30;99.90
57434;DHT22;43277;52.672;6.984;2022-08-05T00:12:09;18.20;99.90
57434;DHT22;43277;52.672;6.984;2022-08-05T00:14:35;18.10;99.90
57434;DHT22;43277;52.672;6.984;2022-08-05T00:17:00;18.20;99.90
57434;DHT22;43277;52.672;6.984;2022-08-05T00:19:26;18.10;99.90
57434;DHT22;43277;52.672;6.984;2022-08-05T00:21:52;18.00;99.90
57434;DHT22;43277;52.672;6.984;2022-08-05T00:24:17;18.00;99.90
57434;DHT22;43277;52.672;6.984;2022-08-05T00:26:43;18.00;99.90
57434;DHT22;43277;52.672;6.984;2022-08-05T00:29:09;18.00;99.90
57434;DHT22;43277;52.672;6.984;2022-08-05T00:31:34;18.00;99.90
57434;DHT22;43277;52.672;6.984;2022-08-05T00:34:00;17.90;99.90
57434;DHT22;43277;52.672;6.984;2022-08-05T00:36:26;18.00;99.90
57434;DHT22;43277;52.672;6.984;2022-08-05T00:38:51;17.90;99.90
57434;DHT22;43277;52.672;6.984;2022-08-05T00:41:28;17.90;99.90
57434;DHT22;43277;52.672;6.984;2022-08-05T00:43:54;17.90;99.90
57434;DHT22;43277;52.672;6.984;2022-08-05T00:46:20;17.90;99.90
57434;DHT22;43277;52.672;6.984;2022-08-05T00:48:45;17.90;99.90
57434;DHT22;43277;52.672;6.984;2022-08-05T00:51:11;17.90;99.90
57434;DHT22;43277;52.672;6.984;2022-08-05T00:53:36;17.90;99.90
57434;DHT22;43277;52.672;6.984;2022-08-05T00:56:03;17.90;99.90
57434;DHT22;43277;52.672;6.984;2022-08-05T00:58:28;17.90;99.90
57434;DHT22;43277;52.672;6.984;2022-08-05T01:00:54;17.90;99.90
57434;DHT22;43277;52.672;6.984;2022-08-05T01:03:20;18.00;99.90
57434;DHT22;43277;52.672;6.984;2022-08-05T01:05:46;17.90;99.90
57434;DHT22;43277;52.672;6.984;2022-08-05T01:08:11;17.90;99.90
57434;DHT22;43277;52.672;6.984;2022-08-05T01:10:42;17.90;99.90
57434;DHT22;43277;52.672;6.984;2022-08-05T01:13:15;17.90;99.90
57434;DHT22;43277;52.672;6.984;2022-08-05T01:15:48;17.80;99.90
57434;DHT22;43277;52.672;6.984;2022-08-05T01:18:21;17.70;99.90
57434;DHT22;43277;52.672;6.984;2022-08-05T01:21:15;17.70;99.90
57434;DHT22;43277;52.672;6.984;2022-08-05T01:26:59;17.80;99.90
57434;DHT22;43277;52.672;6.984;2022-08-05T01:29:37;17.80;99.90
57434;DHT22;43277;52.672;6.984;2022-08-05T01:32:08;17.80;99.90
57434;DHT22;43277;52.672;6.984;2022-08-05T01:34:38;17.80;99.90
57434;DHT22;43277;52.672;6.984;2022-08-05T01:39:36;17.80;99.90
57434;DHT22;43277;52.672;6.984;2022-08-05T01:42:05;17.80;99.90
57434;DHT22;43277;52.672;6.984;2022-08-05T01:44:32;17.80;99.90
57434;DHT22;43277;52.672;6.984;2022-08-05T01:46:59;17.80;99.90
57434;DHT22;43277;52.672;6.984;2022-08-05T01:49:26;17.80;99.90
57434;DHT22;43277;52.672;6.984;2022-08-05T01:51:57;17.80;99.90
57434;DHT22;43277;52.672;6.984;2022-08-05T01:54:28;17.80;99.90
57434;DHT22;43277;52.672;6.984;2022-08-05T01:56:55;17.80;99.90
57434;DHT22;43277;52.672;6.984;2022-08-05T01:59:25;17.80;99.90
57434;DHT22;43277;52.672;6.984;2022-08-05T02:01:53;17.80;99.90
57434;DHT22;43277;52.672;6.984;2022-08-05T02:04:21;17.90;99.90
57434;DHT22;43277;52.672;6.984;2022-08-05T02:06:48;17.90;99.90
57434;DHT22;43277;52.672;6.984;2022-08-05T02:09:14;17.90;99.90
57434;DHT22;43277;52.672;6.984;2022-08-05T02:11:46;17.80;99.90
57434;DHT22;43277;52.672;6.984;2022-08-05T02:14:44;17.80;99.90
57434;DHT22;43277;52.672;6.984;2022-08-05T02:17:35;17.80;99.90
57434;DHT22;43277;52.672;6.984;2022-08-05T02:20:07;17.80;99.90
57434;DHT22;43277;52.672;6.984;2022-08-05T02:22:38;17.80;99.90
57434;DHT22;43277;52.672;6.984;2022-08-05T02:25:16;17.80;99.90
57434;DHT22;43277;52.672;6.984;2022-08-05T02:27:43;17.80;99.90
57434;DHT22;43277;52.672;6.984;2022-08-05T02:30:13;17.80;99.90
57434;DHT22;43277;52.672;6.984;2022-08-05T02:32:40;17.80;99.90
57434;DHT22;43277;52.672;6.984;2022-08-05T02:35:10;17.80;99.90
57434;DHT22;43277;52.672;6.984;2022-08-05T02:37:37;17.90;99.90
57434;DHT22;43277;52.672;6.984;2022-08-05T02:40:05;17.80;99.90
57434;DHT22;43277;52.672;6.984;2022-08-05T02:42:32;17.80;99.90
57434;DHT22;43277;52.672;6.984;2022-08-05T02:44:59;17.80;99.90
57434;DHT22;43277;52.672;6.984;2022-08-05T02:47:26;17.70;99.90
57434;DHT22;43277;52.672;6.984;2022-08-05T02:49:55;17.70;99.90
57434;DHT22;43277;52.672;6.984;2022-08-05T02:52:21;17.70;99.90
57434;DHT22;43277;52.672;6.984;2022-08-05T02:54:47;17.70;99.90
57434;DHT22;43277;52.672;6.984;2022-08-05T02:57:16;17.70;99.90
57434;DHT22;43277;52.672;6.984;2022-08-05T02:59:47;17.70;99.90
57434;DHT22;43277;52.672;6.984;2022-08-05T03:02:18;17.70;99.90
57434;DHT22;43277;52.672;6.984;2022-08-05T03:04:44;17.80;99.90
57434;DHT22;43277;52.672;6.984;2022-08-05T03:07:11;17.70;99.90
57434;DHT22;43277;52.672;6.984;2022-08-05T03:09:38;17.80;99.90
57434;DHT22;43277;52.672;6.984;2022-08-05T03:12:07;17.80;99.90
57434;DHT22;43277;52.672;6.984;2022-08-05T03:14:32;17.80;99.90
57434;DHT22;43277;52.672;6.984;2022-08-05T03:16:58;17.70;99.90
57434;DHT22;43277;52.672;6.984;2022-08-05T03:19:24;17.70;99.90
57434;DHT22;43277;52.672;6.984;2022-08-05T03:21:49;17.80;99.90
57434;DHT22;43277;52.672;6.984;2022-08-05T03:24:18;17.70;99.90
57434;DHT22;43277;52.672;6.984;2022-08-05T03:26:45;17.70;99.90
57434;DHT22;43277;52.672;6.984;2022-08-05T03:29:10;17.70;99.90
57434;DHT22;43277;52.672;6.984;2022-08-05T03:31:37;17.70;99.90
57434;DHT22;43277;52.672;6.984;2022-08-05T03:34:03;17.70;99.90
57434;DHT22;43277;52.672;6.984;2022-08-05T03:36:29;17.70;99.90
57434;DHT22;43277;52.672;6.984;2022-08-05T03:38:55;17.60;99.90
57434;DHT22;43277;52.672;6.984;2022-08-05T03:41:21;17.70;99.90
57434;DHT22;43277;52.672;6.984;2022-08-05T03:43:46;17.70;99.90
57434;DHT22;43277;52.672;6.984;2022-08-05T03:46:12;17.70;99.90
57434;DHT22;43277;52.672;6.984;2022-08-05T03:48:37;17.70;99.90
57434;DHT22;43277;52.672;6.984;2022-08-05T03:53:43;17.60;99.90
57434;DHT22;43277;52.672;6.984;2022-08-05T03:58:43;17.60;99.90
57434;DHT22;43277;52.672;6.984;2022-08-05T04:01:10;17.60;99.90
57434;DHT22;43277;52.672;6.984;2022-08-05T04:03:38;17.60;99.90
57434;DHT22;43277;52.672;6.984;2022-08-05T04:06:05;17.60;99.90
57434;DHT22;43277;52.672;6.984;2022-08-05T04:08:32;17.60;99.90
57434;DHT22;43277;52.672;6.984;2022-08-05T04:10:59;17.60;99.90
57434;DHT22;43277;52.672;6.984;2022-08-05T04:13:27;17.60;99.90
57434;DHT22;43277;52.672;6.984;2022-08-05T04:15:53;17.60;99.90
57434;DHT22;43277;52.672;6.984;2022-08-05T04:18:22;17.50;99.90
57434;DHT22;43277;52.672;6.984;2022-08-05T04:20:53;17.50;99.90
57434;DHT22;43277;52.672;6.984;2022-08-05T04:23:21;17.60;99.90
57434;DHT22;43277;52.672;6.984;2022-08-05T04:25:47;17.60;99.90
57434;DHT22;43277;52.672;6.984;2022-08-05T04:28:12;17.50;99.90
57434;DHT22;43277;52.672;6.984;2022-08-05T04:30:38;17.60;99.90
57434;DHT22;43277;52.672;6.984;2022-08-05T04:33:03;17.60;99.90
57434;DHT22;43277;52.672;6.984;2022-08-05T04:35:29;17.60;99.90
57434;DHT22;43277;52.672;6.984;2022-08-05T04:37:54;17.60;99.90
57434;DHT22;43277;52.672;6.984;2022-08-05T04:40:20;17.60;99.90
57434;DHT22;43277;52.672;6.984;2022-08-05T04:42:46;17.60;99.90
57434;DHT22;43277;52.672;6.984;2022-08-05T04:45:11;17.60;99.90
57434;DHT22;43277;52.672;6.984;2022-08-05T04:47:37;17.60;99.90
57434;DHT22;43277;52.672;6.984;2022-08-05T04:50:02;17.70;99.90
57434;DHT22;43277;52.672;6.984;2022-08-05T04:52:28;17.70;99.90
57434;DHT22;43277;52.672;6.984;2022-08-05T04:54:54;17.70;99.90
57434;DHT22;43277;52.672;6.984;2022-08-05T04:57:20;17.70;99.90
57434;DHT22;43277;52.672;6.984;2022-08-05T04:59:45;17.80;99.90
57434;DHT22;43277;52.672;6.984;2022-08-05T05:02:11;17.70;99.90
57434;DHT22;43277;52.672;6.984;2022-08-05T05:04:36;17.70;99.90
57434;DHT22;43277;52.672;6.984;2022-08-05T05:07:02;17.80;99.90
57434;DHT22;43277;52.672;6.984;2022-08-05T05:09:28;17.80;99.90
57434;DHT22;43277;52.672;6.984;2022-08-05T05:11:53;17.80;99.90
57434;DHT22;43277;52.672;6.984;2022-08-05T05:14:19;17.80;99.90
57434;DHT22;43277;52.672;6.984;2022-08-05T05:16:44;17.70;99.90
57434;DHT22;43277;52.672;6.984;2022-08-05T05:19:10;17.80;99.90
57434;DHT22;43277;52.672;6.984;2022-08-05T05:21:36;17.80;99.90
57434;DHT22;43277;52.672;6.984;2022-08-05T05:24:01;17.80;99.90
57434;DHT22;43277;52.672;6.984;2022-08-05T05:26:27;17.80;99.90
57434;DHT22;43277;52.672;6.984;2022-08-05T05:28:53;17.90;99.90
57434;DHT22;43277;52.672;6.984;2022-08-05T05:31:18;17.90;99.90
57434;DHT22;43277;52.672;6.984;2022-08-05T05:33:44;17.90;99.90
57434;DHT22;43277;52.672;6.984;2022-08-05T05:36:09;17.90;99.90
57434;DHT22;43277;52.672;6.984;2022-08-05T05:38:35;17.90;99.90
57434;DHT22;43277;52.672;6.984;2022-08-05T05:41:00;17.90;99.90
57434;DHT22;43277;52.672;6.984;2022-08-05T05:43:26;17.90;99.90
57434;DHT22;43277;52.672;6.984;2022-08-05T05:45:51;18.00;99.90
57434;DHT22;43277;52.672;6.984;2022-08-05T05:48:20;18.00;99.90
57434;DHT22;43277;52.672;6.984;2022-08-05T05:50:45;18.00;99.90
57434;DHT22;43277;52.672;6.984;2022-08-05T05:53:11;18.00;99.90
57434;DHT22;43277;52.672;6.984;2022-08-05T05:55:37;18.00;99.90
57434;DHT22;43277;52.672;6.984;2022-08-05T05:58:03;18.00;99.90
57434;DHT22;43277;52.672;6.984;2022-08-05T06:00:32;18.00;99.90
57434;DHT22;43277;52.672;6.984;2022-08-05T06:02:57;18.10;99.90
57434;DHT22;43277;52.672;6.984;2022-08-05T06:05:27;18.10;99.90
57434;DHT22;43277;52.672;6.984;2022-08-05T06:07:53;18.10;99.90
57434;DHT22;43277;52.672;6.984;2022-08-05T06:10:19;18.10;99.90
57434;DHT22;43277;52.672;6.984;2022-08-05T06:12:44;18.10;99.90
57434;DHT22;43277;52.672;6.984;2022-08-05T06:15:10;18.10;99.90
57434;DHT22;43277;52.672;6.984;2022-08-05T06:17:44;18.10;99.90
57434;DHT22;43277;52.672;6.984;2022-08-05T06:20:10;18.20;99.90
57434;DHT22;43277;52.672;6.984;2022-08-05T06:22:36;18.20;99.90
57434;DHT22;43277;52.672;6.984;2022-08-05T06:25:03;18.20;99.90
57434;DHT22;43277;52.672;6.984;2022-08-05T06:27:29;18.20;99.90
57434;DHT22;43277;52.672;6.984;2022-08-05T06:29:55;18.20;99.90
57434;DHT22;43277;52.672;6.984;2022-08-05T06:32:20;18.10;99.90
57434;DHT22;43277;52.672;6.984;2022-08-05T06:34:46;18.30;99.90
57434;DHT22;43277;52.672;6.984;2022-08-05T06:37:11;18.30;99.90
57434;DHT22;43277;52.672;6.984;2022-08-05T06:39:37;18.20;99.90
57434;DHT22;43277;52.672;6.984;2022-08-05T06:42:04;18.40;99.90
57434;DHT22;43277;52.672;6.984;2022-08-05T06:44:30;18.40;99.90
57434;DHT22;43277;52.672;6.984;2022-08-05T06:46:56;18.40;99.90
57434;DHT22;43277;52.672;6.984;2022-08-05T06:49:24;18.40;99.90
57434;DHT22;43277;52.672;6.984;2022-08-05T06:51:51;18.40;99.90
57434;DHT22;43277;52.672;6.984;2022-08-05T06:54:17;18.40;99.90
57434;DHT22;43277;52.672;6.984;2022-08-05T06:56:42;18.40;99.90
57434;DHT22;43277;52.672;6.984;2022-08-05T06:59:08;18.50;99.90
57434;DHT22;43277;52.672;6.984;2022-08-05T07:01:36;18.50;99.90
57434;DHT22;43277;52.672;6.984;2022-08-05T07:04:04;18.50;99.90
57434;DHT22;43277;52.672;6.984;2022-08-05T07:06:30;18.50;99.90
57434;DHT22;43277;52.672;6.984;2022-08-05T07:08:55;18.50;99.90
57434;DHT22;43277;52.672;6.984;2022-08-05T07:11:22;18.50;99.90
57434;DHT22;43277;52.672;6.984;2022-08-05T07:13:48;18.50;99.90
57434;DHT22;43277;52.672;6.984;2022-08-05T07:16:32;18.50;99.90
57434;DHT22;43277;52.672;6.984;2022-08-05T07:19:19;18.50;99.90
57434;DHT22;43277;52.672;6.984;2022-08-05T07:21:47;18.50;99.90
57434;DHT22;43277;52.672;6.984;2022-08-05T07:24:13;18.50;99.90
57434;DHT22;43277;52.672;6.984;2022-08-05T07:26:39;18.60;99.90
57434;DHT22;43277;52.672;6.984;2022-08-05T07:29:05;18.60;99.90
57434;DHT22;43277;52.672;6.984;2022-08-05T07:31:32;18.60;99.90
57434;DHT22;43277;52.672;6.984;2022-08-05T07:33:58;18.70;99.90
57434;DHT22;43277;52.672;6.984;2022-08-05T07:36:24;18.60;99.90
57434;DHT22;43277;52.672;6.984;2022-08-05T07:38:49;18.70;99.90
57434;DHT22;43277;52.672;6.984;2022-08-05T07:41:17;18.80;99.90
57434;DHT22;43277;52.672;6.984;2022-08-05T07:43:43;18.80;99.90
57434;DHT22;43277;52.672;6.984;2022-08-05T07:46:09;18.80;99.90
57434;DHT22;43277;52.672;6.984;2022-08-05T07:48:34;18.90;99.90
57434;DHT22;43277;52.672;6.984;2022-08-05T07:51:00;18.90;99.90
57434;DHT22;43277;52.672;6.984;2022-08-05T07:53:25;18.90;99.90
57434;DHT22;43277;52.672;6.984;2022-08-05T07:55:52;18.90;99.90
57434;DHT22;43277;52.672;6.984;2022-08-05T07:58:17;19.00;99.90
57434;DHT22;43277;52.672;6.984;2022-08-05T08:00:43;19.00;99.90
57434;DHT22;43277;52.672;6.984;2022-08-05T08:03:10;19.00;99.90
57434;DHT22;43277;52.672;6.984;2022-08-05T08:05:39;19.10;99.90
57434;DHT22;43277;52.672;6.984;2022-08-05T08:08:08;19.20;99.90
57434;DHT22;43277;52.672;6.984;2022-08-05T08:10:34;19.30;99.90
57434;DHT22;43277;52.672;6.984;2022-08-05T08:12:59;19.40;99.90
57434;DHT22;43277;52.672;6.984;2022-08-05T08:15:25;19.50;99.90
57434;DHT22;43277;52.672;6.984;2022-08-05T08:17:51;19.50;99.90
57434;DHT22;43277;52.672;6.984;2022-08-05T08:20:16;19.70;99.90
57434;DHT22;43277;52.672;6.984;2022-08-05T08:22:42;19.70;99.90
57434;DHT22;43277;52.672;6.984;2022-08-05T08:25:08;19.70;99.90
57434;DHT22;43277;52.672;6.984;2022-08-05T08:27:34;19.80;99.90
57434;DHT22;43277;52.672;6.984;2022-08-05T08:30:00;19.80;99.90
57434;DHT22;43277;52.672;6.984;2022-08-05T08:32:25;19.80;99.90
57434;DHT22;43277;52.672;6.984;2022-08-05T08:34:52;19.80;99.90
57434;DHT22;43277;52.672;6.984;2022-08-05T08:37:18;19.90;99.90
57434;DHT22;43277;52.672;6.984;2022-08-05T08:39:43;19.90;99.90
57434;DHT22;43277;52.672;6.984;2022-08-05T08:42:09;19.90;99.90
57434;DHT22;43277;52.672;6.984;2022-08-05T08:44:39;20.00;99.90
57434;DHT22;43277;52.672;6.984;2022-08-05T08:47:06;20.10;99.90
57434;DHT22;43277;52.672;6.984;2022-08-05T08:49:34;20.10;99.90
57434;DHT22;43277;52.672;6.984;2022-08-05T08:52:10;20.20;99.90
57434;DHT22;43277;52.672;6.984;2022-08-05T08:54:37;20.30;99.90
57434;DHT22;43277;52.672;6.984;2022-08-05T08:57:05;20.40;99.90
57434;DHT22;43277;52.672;6.984;2022-08-05T08:59:31;20.50;99.90
57434;DHT22;43277;52.672;6.984;2022-08-05T09:01:57;20.50;99.90
57434;DHT22;43277;52.672;6.984;2022-08-05T09:04:23;20.60;99.90
57434;DHT22;43277;52.672;6.984;2022-08-05T09:06:49;20.70;99.90
57434;DHT22;43277;52.672;6.984;2022-08-05T09:09:14;20.70;99.90
57434;DHT22;43277;52.672;6.984;2022-08-05T09:11:40;20.70;99.90
57434;DHT22;43277;52.672;6.984;2022-08-05T09:14:06;20.70;99.90
57434;DHT22;43277;52.672;6.984;2022-08-05T09:16:32;20.70;99.90
57434;DHT22;43277;52.672;6.984;2022-08-05T09:18:58;20.70;99.90
57434;DHT22;43277;52.672;6.984;2022-08-05T09:21:23;20.80;99.90
57434;DHT22;43277;52.672;6.984;2022-08-05T09:24:06;20.70;99.90
57434;DHT22;43277;52.672;6.984;2022-08-05T09:26:37;20.70;99.90
57434;DHT22;43277;52.672;6.984;2022-08-05T09:29:06;20.80;99.90
57434;DHT22;43277;52.672;6.984;2022-08-05T09:31:33;20.70;99.90
57434;DHT22;43277;52.672;6.984;2022-08-05T09:34:01;20.70;99.90
57434;DHT22;43277;52.672;6.984;2022-08-05T09:36:46;20.80;99.90
57434;DHT22;43277;52.672;6.984;2022-08-05T09:39:18;20.80;99.90
57434;DHT22;43277;52.672;6.984;2022-08-05T09:42:03;20.80;99.90
57434;DHT22;43277;52.672;6.984;2022-08-05T09:44:40;20.90;99.90
57434;DHT22;43277;52.672;6.984;2022-08-05T09:49:56;21.00;99.90
57434;DHT22;43277;52.672;6.984;2022-08-05T09:55:13;20.90;99.90
57434;DHT22;43277;52.672;6.984;2022-08-05T09:57:44;20.90;99.90
57434;DHT22;43277;52.672;6.984;2022-08-05T10:00:21;21.00;99.90
57434;DHT22;43277;52.672;6.984;2022-08-05T10:02:51;21.10;99.90
57434;DHT22;43277;52.672;6.984;2022-08-05T10:05:23;21.10;99.90
57434;DHT22;43277;52.672;6.984;2022-08-05T10:07:56;21.40;99.90
57434;DHT22;43277;52.672;6.984;2022-08-05T10:10:27;21.60;99.90
57434;DHT22;43277;52.672;6.984;2022-08-05T10:12:58;21.70;99.90
57434;DHT22;43277;52.672;6.984;2022-08-05T10:15:29;21.80;99.90
57434;DHT22;43277;52.672;6.984;2022-08-05T10:18:12;21.80;99.90
57434;DHT22;43277;52.672;6.984;2022-08-05T10:20:47;21.90;99.90
57434;DHT22;43277;52.672;6.984;2022-08-05T10:23:19;22.00;99.90
57434;DHT22;43277;52.672;6.984;2022-08-05T10:25:45;21.90;99.90
57434;DHT22;43277;52.672;6.984;2022-08-05T10:28:11;21.80;99.90
57434;DHT22;43277;52.672;6.984;2022-08-05T10:30:37;21.70;99.90
57434;DHT22;43277;52.672;6.984;2022-08-05T10:33:05;21.70;99.90
57434;DHT22;43277;52.672;6.984;2022-08-05T10:35:31;21.60;99.90
57434;DHT22;43277;52.672;6.984;2022-08-05T10:37:58;21.60;99.90
57434;DHT22;43277;52.672;6.984;2022-08-05T10:40:38;21.50;99.90
57434;DHT22;43277;52.672;6.984;2022-08-05T10:46:11;21.40;99.90
57434;DHT22;43277;52.672;6.984;2022-08-05T10:48:39;21.40;99.90
57434;DHT22;43277;52.672;6.984;2022-08-05T10:54:14;22.10;99.90
57434;DHT22;43277;52.672;6.984;2022-08-05T10:56:23;22.40;99.90
57434;DHT22;43277;52.672;6.984;2022-08-05T11:01:34;22.90;99.90
57434;DHT22;43277;52.672;6.984;2022-08-05T11:06:25;23.60;99.90
57434;DHT22;43277;52.672;6.984;2022-08-05T11:09:11;23.80;99.10
57434;DHT22;43277;52.672;6.984;2022-08-05T11:11:37;24.00;94.40
57434;DHT22;43277;52.672;6.984;2022-08-05T11:14:03;24.20;94.50
57434;DHT22;43277;52.672;6.984;2022-08-05T11:16:30;24.30;92.40
57434;DHT22;43277;52.672;6.984;2022-08-05T11:19:24;24.50;92.90
57434;DHT22;43277;52.672;6.984;2022-08-05T11:21:51;24.60;96.30
57434;DHT22;43277;52.672;6.984;2022-08-05T11:24:17;24.80;96.60
57434;DHT22;43277;52.672;6.984;2022-08-05T11:26:44;25.10;94.50
57434;DHT22;43277;52.672;6.984;2022-08-05T11:29:37;25.40;84.70
57434;DHT22;43277;52.672;6.984;2022-08-05T11:32:28;25.50;83.70
57434;DHT22;43277;52.672;6.984;2022-08-05T11:34:55;25.60;90.30
57434;DHT22;43277;52.672;6.984;2022-08-05T11:37:57;25.80;89.10
57434;DHT22;43277;52.672;6.984;2022-08-05T11:40:55;26.10;91.90
57434;DHT22;43277;52.672;6.984;2022-08-05T11:43:21;26.30;89.30
57434;DHT22;43277;52.672;6.984;2022-08-05T11:45:47;26.50;89.40
57434;DHT22;43277;52.672;6.984;2022-08-05T11:48:14;26.40;85.20
57434;DHT22;43277;52.672;6.984;2022-08-05T11:50:39;26.60;87.20
57434;DHT22;43277;52.672;6.984;2022-08-05T11:53:06;26.60;82.10
57434;DHT22;43277;52.672;6.984;2022-08-05T11:55:31;26.70;80.90
57434;DHT22;43277;52.672;6.984;2022-08-05T11:57:57;26.70;78.00
57434;DHT22;43277;52.672;6.984;2022-08-05T12:00:29;26.70;76.10
57434;DHT22;43277;52.672;6.984;2022-08-05T12:02:56;26.80;79.10
57434;DHT22;43277;52.672;6.984;2022-08-05T12:05:26;26.90;78.10
57434;DHT22;43277;52.672;6.984;2022-08-05T12:07:51;27.00;67.70
57434;DHT22;43277;52.672;6.984;2022-08-05T12:10:24;26.90;73.40
57434;DHT22;43277;52.672;6.984;2022-08-05T12:12:51;27.10;74.30
57434;DHT22;43277;52.672;6.984;2022-08-05T12:15:20;27.10;71.90
57434;DHT22;43277;52.672;6.984;2022-08-05T12:17:45;27.00;74.30
57434;DHT22;43277;52.672;6.984;2022-08-05T12:20:11;27.00;65.30
57434;DHT22;43277;52.672;6.984;2022-08-05T12:22:37;26.90;61.50
57434;DHT22;43277;52.672;6.984;2022-08-05T12:25:03;26.80;65.90
57434;DHT22;43277;52.672;6.984;2022-08-05T12:27:30;26.60;65.30
57434;DHT22;43277;52.672;6.984;2022-08-05T12:30:08;26.50;61.10
57434;DHT22;43277;52.672;6.984;2022-08-05T12:32:45;26.40;66.50
57434;DHT22;43277;52.672;6.984;2022-08-05T12:35:12;26.60;61.30
57434;DHT22;43277;52.672;6.984;2022-08-05T12:37:40;26.80;68.90
57434;DHT22;43277;52.672;6.984;2022-08-05T12:40:08;26.90;61.30
57434;DHT22;43277;52.672;6.984;2022-08-05T12:42:35;26.70;64.10
57434;DHT22;43277;52.672;6.984;2022-08-05T12:47:28;26.70;66.80
57434;DHT22;43277;52.672;6.984;2022-08-05T12:49:54;27.00;61.40
57434;DHT22;43277;52.672;6.984;2022-08-05T12:52:20;27.00;60.30
57434;DHT22;43277;52.672;6.984;2022-08-05T12:54:47;26.90;65.40
57434;DHT22;43277;52.672;6.984;2022-08-05T12:57:17;27.00;57.40
57434;DHT22;43277;52.672;6.984;2022-08-05T13:02:21;26.90;65.20
57434;DHT22;43277;52.672;6.984;2022-08-05T13:04:48;27.10;67.80
57434;DHT22;43277;52.672;6.984;2022-08-05T13:07:19;27.30;61.20
57434;DHT22;43277;52.672;6.984;2022-08-05T13:09:56;27.30;55.70
57434;DHT22;43277;52.672;6.984;2022-08-05T13:12:25;27.00;63.70
57434;DHT22;43277;52.672;6.984;2022-08-05T13:14:57;26.90;66.70
57434;DHT22;43277;52.672;6.984;2022-08-05T13:17:25;26.80;64.40
57434;DHT22;43277;52.672;6.984;2022-08-05T13:20:08;26.80;66.80
57434;DHT22;43277;52.672;6.984;2022-08-05T13:22:38;27.00;70.50
57434;DHT22;43277;52.672;6.984;2022-08-05T13:25:09;27.30;68.20
57434;DHT22;43277;52.672;6.984;2022-08-05T13:27:36;27.50;63.80
57434;DHT22;43277;52.672;6.984;2022-08-05T13:30:03;27.50;62.20
57434;DHT22;43277;52.672;6.984;2022-08-05T13:32:29;27.30;59.20
57434;DHT22;43277;52.672;6.984;2022-08-05T13:34:55;27.30;64.10
57434;DHT22;43277;52.672;6.984;2022-08-05T13:37:21;27.40;64.30
57434;DHT22;43277;52.672;6.984;2022-08-05T13:39:51;27.60;62.80
57434;DHT22;43277;52.672;6.984;2022-08-05T13:42:21;27.40;56.30
57434;DHT22;43277;52.672;6.984;2022-08-05T13:44:50;26.90;59.40
57434;DHT22;43277;52.672;6.984;2022-08-05T13:47:16;26.70;62.20
57434;DHT22;43277;52.672;6.984;2022-08-05T13:49:42;26.60;66.00
57434;DHT22;43277;52.672;6.984;2022-08-05T13:52:14;26.70;67.00
57434;DHT22;43277;52.672;6.984;2022-08-05T13:54:41;26.70;69.10
57434;DHT22;43277;52.672;6.984;2022-08-05T13:57:08;26.60;57.90
57434;DHT22;43277;52.672;6.984;2022-08-05T13:59:34;26.50;61.90
57434;DHT22;43277;52.672;6.984;2022-08-05T14:02:01;26.60;65.80
57434;DHT22;43277;52.672;6.984;2022-08-05T14:07:12;27.10;59.90
57434;DHT22;43277;52.672;6.984;2022-08-05T14:09:37;26.80;63.40
57434;DHT22;43277;52.672;6.984;2022-08-05T14:12:06;26.50;59.90
57434;DHT22;43277;52.672;6.984;2022-08-05T14:14:31;26.30;62.90
57434;DHT22;43277;52.672;6.984;2022-08-05T14:16:57;26.00;60.80
57434;DHT22;43277;52.672;6.984;2022-08-05T14:19:22;25.80;59.00
57434;DHT22;43277;52.672;6.984;2022-08-05T14:21:48;25.40;60.50
57434;DHT22;43277;52.672;6.984;2022-08-05T14:24:14;25.20;60.80
57434;DHT22;43277;52.672;6.984;2022-08-05T14:26:39;24.90;66.10
57434;DHT22;43277;52.672;6.984;2022-08-05T14:29:05;24.80;67.30
57434;DHT22;43277;52.672;6.984;2022-08-05T14:31:31;24.70;63.80
57434;DHT22;43277;52.672;6.984;2022-08-05T14:33:57;24.60;63.00
57434;DHT22;43277;52.672;6.984;2022-08-05T14:36:23;24.50;66.70
57434;DHT22;43277;52.672;6.984;2022-08-05T14:38:49;24.60;68.90
57434;DHT22;43277;52.672;6.984;2022-08-05T14:41:15;24.90;68.50
57434;DHT22;43277;52.672;6.984;2022-08-05T14:43:41;25.30;66.90
57434;DHT22;43277;52.672;6.984;2022-08-05T14:46:06;25.60;67.00
57434;DHT22;43277;52.672;6.984;2022-08-05T14:48:32;25.90;68.20
57434;DHT22;43277;52.672;6.984;2022-08-05T14:50:57;26.20;68.20
57434;DHT22;43277;52.672;6.984;2022-08-05T14:53:23;26.40;66.70
57434;DHT22;43277;52.672;6.984;2022-08-05T14:55:49;26.50;65.50
57434;DHT22;43277;52.672;6.984;2022-08-05T14:58:14;26.60;64.40
57434;DHT22;43277;52.672;6.984;2022-08-05T15:00:41;26.80;65.90
57434;DHT22;43277;52.672;6.984;2022-08-05T15:03:06;27.20;63.70
57434;DHT22;43277;52.672;6.984;2022-08-05T15:05:33;27.40;57.20
57434;DHT22;43277;52.672;6.984;2022-08-05T15:08:00;27.20;60.30
57434;DHT22;43277;52.672;6.984;2022-08-05T15:10:27;26.90;62.60
57434;DHT22;43277;52.672;6.984;2022-08-05T15:12:52;26.60;63.90
57434;DHT22;43277;52.672;6.984;2022-08-05T15:15:18;26.60;59.60
57434;DHT22;43277;52.672;6.984;2022-08-05T15:17:44;26.60;60.00
57434;DHT22;43277;52.672;6.984;2022-08-05T15:20:11;26.60;55.50
57434;DHT22;43277;52.672;6.984;2022-08-05T15:22:37;26.80;57.40
57434;DHT22;43277;52.672;6.984;2022-08-05T15:25:03;27.30;53.80
57434;DHT22;43277;52.672;6.984;2022-08-05T15:27:29;28.00;56.00
57434;DHT22;43277;52.672;6.984;2022-08-05T15:29:54;28.30;54.70
57434;DHT22;43277;52.672;6.984;2022-08-05T15:32:22;28.60;54.30
57434;DHT22;43277;52.672;6.984;2022-08-05T15:34:47;28.80;52.90
57434;DHT22;43277;52.672;6.984;2022-08-05T15:37:13;29.60;54.00
57434;DHT22;43277;52.672;6.984;2022-08-05T15:39:39;30.60;52.10
57434;DHT22;43277;52.672;6.984;2022-08-05T15:42:04;31.40;49.50
57434;DHT22;43277;52.672;6.984;2022-08-05T15:44:30;32.00;47.80
57434;DHT22;43277;52.672;6.984;2022-08-05T15:46:55;32.50;46.40
57434;DHT22;43277;52.672;6.984;2022-08-05T15:49:22;33.20;45.10
57434;DHT22;43277;52.672;6.984;2022-08-05T15:51:47;33.60;45.20
57434;DHT22;43277;52.672;6.984;2022-08-05T15:54:13;34.00;42.90
57434;DHT22;43277;52.672;6.984;2022-08-05T15:56:41;34.50;43.30
57434;DHT22;43277;52.672;6.984;2022-08-05T15:59:06;34.20;42.40
57434;DHT22;43277;52.672;6.984;2022-08-05T16:01:32;33.10;42.30
57434;DHT22;43277;52.672;6.984;2022-08-05T16:03:58;32.30;42.70
57434;DHT22;43277;52.672;6.984;2022-08-05T16:06:23;31.20;44.10
57434;DHT22;43277;52.672;6.984;2022-08-05T16:08:49;29.90;44.60